Time;durP1;ratioP1;P1;durP2;ratioP2;P2;SDS_P1;SDS_P2;PMS_P1;PMS_P2;Temp;Humidity;BMP_temperature;BMP_pressure;BME280_temperature;BME280_humidity;BME280_pressure;Samples;Min_cycle;Max_cycle;Signal;HPM_P1;HPM_P2
2024/04/10 00:08:08;;;;;;;1.25;0.85;;;6.20;99.90;;;;;;8124116;29;20043;-87
2024/04/10 00:18:08;;;;;;;2.25;1.08;;;6.20;99.90;;;;;;8057542;29;20104;-85
2024/04/10 00:22:54;;;;;;;;;;;;;;;;;;;;;
2024/04/10 00:32:21;;;;;;;1.42;1.00;;;6.20;99.90;;;;;;8145312;29;20689;-85
2024/04/10 00:41:05;;;;;;;1.48;1.00;;;6.30;99.90;;;;;;8161593;29;20042;-85
2024/04/10 00:45:09;;;;;;;2.22;1.30;;;6.40;99.90;;;;;;8186796;29;20032;-85
2024/04/10 00:49:11;;;;;;;2.55;1.17;;;6.10;99.90;;;;;;8171825;29;20036;-86
2024/04/10 00:53:16;;;;;;;3.80;1.35;;;6.10;99.90;;;;;;8156700;29;20040;-86
2024/04/10 00:57:38;;;;;;;;;;;;;;;;;;;;;
2024/04/10 01:02:08;;;;;;;2.20;1.30;;;6.10;99.90;;;;;;8171410;29;20054;-85
2024/04/10 01:06:18;;;;;;;3.70;1.20;;;6.00;99.90;;;;;;8161477;29;20063;-85
2024/04/10 01:10:26;;;;;;;2.07;1.20;;;5.90;99.90;;;;;;8172747;29;20047;-87
2024/04/10 01:14:30;;;;;;;1.42;1.15;;;5.90;99.90;;;;;;8167119;29;20044;-85
2024/04/10 01:19:39;;;;;;;;;;;;;;;;;;;;;
2024/04/10 01:23:40;;;;;;;1.67;1.00;;;5.80;99.90;;;;;;8010212;29;20186;-85
2024/04/10 01:27:40;;;;;;;1.15;0.80;;;5.80;99.90;;;;;;8121001;29;20027;-87
2024/04/10 01:31:44;;;;;;;2.55;0.90;;;5.90;99.90;;;;;;8135270;29;20033;-87
2024/04/10 01:36:02;;;;;;;1.23;0.80;;;6.00;99.90;;;;;;8157906;29;20036;-86
2024/04/10 01:40:04;;;;;;;2.28;0.90;;;6.00;99.90;;;;;;8140632;29;20040;-88
2024/04/10 01:44:05;;;;;;;3.88;1.25;;;5.90;99.90;;;;;;8165799;29;20041;-87
2024/04/10 01:48:12;;;;;;;1.92;0.93;;;5.90;99.90;;;;;;8125434;29;20041;-86
2024/04/10 01:52:19;;;;;;;0.70;0.50;;;5.90;99.90;;;;;;8139929;29;20040;-86
2024/04/10 01:56:51;;;;;;;1.42;0.90;;;5.80;99.90;;;;;;8114853;29;20485;-87
2024/04/10 02:01:00;;;;;;;1.05;0.73;;;5.90;99.90;;;;;;8140930;29;20517;-87
2024/04/10 02:10:20;;;;;;;1.85;0.93;;;5.80;99.90;;;;;;8140923;29;20043;-86
2024/04/10 02:14:35;;;;;;;3.22;0.88;;;5.90;99.90;;;;;;8132593;29;20040;-86
2024/04/10 02:23:08;;;;;;;1.40;0.77;;;5.90;99.90;;;;;;8140999;29;20494;-86
2024/04/10 02:28:14;;;;;;;1.42;0.85;;;5.80;99.90;;;;;;8170291;29;20536;-85
2024/04/10 02:32:57;;;;;;;;;;;;;;;;;;;;;
2024/04/10 02:37:24;;;;;;;1.17;0.98;;;5.70;99.90;;;;;;8159138;29;20536;-85
2024/04/10 02:41:38;;;;;;;0.98;0.75;;;5.70;99.90;;;;;;8171642;28;20081;-85
2024/04/10 02:56:07;;;;;;;3.95;0.80;;;5.90;99.90;;;;;;8187183;29;20560;-86
2024/04/10 03:00:55;;;;;;;0.90;0.63;;;5.80;99.90;;;;;;8161378;29;20048;-86
2024/04/10 03:04:58;;;;;;;0.73;0.70;;;5.80;99.90;;;;;;8117628;29;20039;-84
2024/04/10 03:14:31;;;;;;;1.15;0.50;;;5.80;99.90;;;;;;8093075;29;20046;-86
2024/04/10 03:33:35;;;;;;;0.98;0.60;;;6.00;99.90;;;;;;7860075;30;20151;-86
2024/04/10 03:38:51;;;;;;;0.70;0.70;;;6.20;99.90;;;;;;7849891;30;20048;-88
2024/04/10 03:43:31;;;;;;;2.03;0.80;;;6.00;99.90;;;;;;7851645;29;20169;-86
2024/04/10 03:47:32;;;;;;;2.53;0.95;;;6.20;99.90;;;;;;8041860;29;20039;-85
2024/04/10 03:52:30;;;;;;;;;;;;;;;;;;;;;
2024/04/10 04:01:58;;;;;;;1.08;0.88;;;6.10;99.90;;;;;;8084653;29;20286;-85
2024/04/10 04:06:16;;;;;;;2.50;0.98;;;5.90;99.90;;;;;;8080148;29;20040;-85
2024/04/10 04:32:01;;;;;;;1.38;0.77;;;6.30;99.90;;;;;;8201883;23;20114;-81
2024/04/10 04:37:53;;;;;;;;;;;;;;;;;;;;;
2024/04/10 04:41:13;;;;;;;1.05;0.68;;;6.60;99.90;;;;;;8132838;23;20389;-81
2024/04/10 04:45:16;;;;;;;1.13;0.77;;;6.00;99.90;;;;;;8164224;29;20046;-80
2024/04/10 04:49:17;;;;;;;1.13;0.80;;;5.90;99.90;;;;;;8140726;29;20035;-80
2024/04/10 04:53:17;;;;;;;0.90;0.82;;;5.80;99.90;;;;;;8148816;29;20092;-81
2024/04/10 04:57:19;;;;;;;3.67;1.00;;;5.80;99.90;;;;;;8140987;29;20085;-83
2024/04/10 05:01:21;;;;;;;0.90;0.50;;;5.90;99.90;;;;;;8158387;29;20047;-84
2024/04/10 05:05:21;;;;;;;0.70;0.63;;;5.90;99.90;;;;;;8165220;29;20043;-82
2024/04/10 05:09:22;;;;;;;2.10;1.20;;;6.00;99.90;;;;;;8162265;29;20405;-84
2024/04/10 05:13:23;;;;;;;1.00;0.90;;;6.00;99.90;;;;;;8154459;29;20412;-83
2024/04/10 05:17:24;;;;;;;1.42;0.90;;;5.90;99.90;;;;;;8153575;29;20461;-83
2024/04/10 05:21:25;;;;;;;1.65;0.90;;;6.00;99.90;;;;;;8146881;29;20114;-83
2024/04/10 05:25:25;;;;;;;1.05;0.75;;;5.90;99.90;;;;;;8148464;28;20036;-82
2024/04/10 05:29:26;;;;;;;1.08;0.77;;;5.80;99.90;;;;;;8160637;29;20493;-81
2024/04/10 05:33:26;;;;;;;2.50;1.40;;;5.90;99.90;;;;;;8153324;29;20039;-82
2024/04/10 05:37:27;;;;;;;1.90;1.17;;;6.00;99.90;;;;;;8152394;29;20035;-83
2024/04/10 05:41:28;;;;;;;1.50;1.10;;;6.00;99.90;;;;;;8153944;29;20063;-80
2024/04/10 05:45:30;;;;;;;2.53;1.20;;;6.20;99.90;;;;;;8152775;29;20031;-81
2024/04/10 05:49:30;;;;;;;2.05;1.02;;;6.50;99.90;;;;;;8147188;29;20046;-81
2024/04/10 05:53:33;;;;;;;1.88;1.15;;;6.30;99.90;;;;;;8167883;29;20063;-83
2024/04/10 05:57:33;;;;;;;2.00;1.20;;;6.30;99.90;;;;;;8163672;29;20039;-85
2024/04/10 06:01:34;;;;;;;2.75;1.50;;;6.50;99.90;;;;;;8146447;29;20042;-83
2024/04/10 06:05:35;;;;;;;1.70;1.25;;;6.30;99.90;;;;;;8158352;29;20032;-83
2024/04/10 06:09:35;;;;;;;1.42;1.17;;;6.20;99.90;;;;;;8165730;29;20035;-83
2024/04/10 06:13:36;;;;;;;2.65;1.52;;;6.20;99.90;;;;;;8161374;29;20416;-83
2024/04/10 06:17:36;;;;;;;1.73;1.25;;;6.50;99.90;;;;;;8146889;29;20044;-82
2024/04/10 06:21:37;;;;;;;4.05;1.48;;;6.60;99.90;;;;;;8160403;29;20032;-82
2024/04/10 06:25:38;;;;;;;2.15;1.30;;;6.60;99.90;;;;;;8158529;29;20038;-81
2024/04/10 06:29:46;;;;;;;1.40;1.30;;;6.70;99.90;;;;;;8155240;29;20580;-81
2024/04/10 06:33:46;;;;;;;2.45;1.33;;;6.90;99.90;;;;;;8155736;29;20127;-82
2024/04/10 06:37:46;;;;;;;1.75;1.30;;;7.20;99.90;;;;;;8142620;29;20028;-82
2024/04/10 06:41:47;;;;;;;2.22;1.33;;;7.40;99.90;;;;;;8139481;29;20039;-82
2024/04/10 06:46:02;;;;;;;2.15;1.30;;;7.30;99.90;;;;;;8158090;29;20082;-83
2024/04/10 06:50:04;;;;;;;4.72;1.50;;;7.30;99.90;;;;;;8158369;29;20098;-82
2024/04/10 06:54:04;;;;;;;2.40;1.42;;;7.20;99.90;;;;;;8160775;29;20044;-84
2024/04/10 06:58:05;;;;;;;2.90;1.42;;;7.30;99.90;;;;;;8152298;29;20036;-82
2024/04/10 07:02:05;;;;;;;2.22;1.70;;;7.60;99.90;;;;;;8136818;29;20497;-82
2024/04/10 07:06:09;;;;;;;2.95;1.70;;;7.80;99.90;;;;;;8135463;29;20040;-83
2024/04/10 07:10:09;;;;;;;2.00;1.60;;;7.80;99.90;;;;;;8151558;29;20511;-84
2024/04/10 07:14:12;;;;;;;2.67;1.23;;;8.00;99.90;;;;;;8139700;29;20043;-82
2024/04/10 07:18:14;;;;;;;2.45;1.60;;;7.80;99.90;;;;;;8153541;29;20126;-81
2024/04/10 07:22:15;;;;;;;2.30;1.50;;;7.90;99.90;;;;;;8155220;29;20060;-81
2024/04/10 07:26:17;;;;;;;3.65;1.67;;;8.10;99.90;;;;;;8165091;29;20039;-82
2024/04/10 07:30:17;;;;;;;3.05;1.70;;;8.70;99.90;;;;;;8149356;29;20405;-82
2024/04/10 07:34:18;;;;;;;2.22;1.30;;;8.70;99.90;;;;;;8160455;29;20040;-83
2024/04/10 07:38:18;;;;;;;3.65;1.50;;;8.70;99.90;;;;;;8161010;29;20416;-82
2024/04/10 07:42:19;;;;;;;2.55;1.55;;;8.90;99.90;;;;;;8146849;29;20048;-80
2024/04/10 07:46:20;;;;;;;2.58;1.55;;;8.90;99.90;;;;;;8162955;29;20028;-83
2024/04/10 07:50:21;;;;;;;2.25;1.17;;;9.40;99.90;;;;;;8139427;29;20051;-81
2024/04/10 07:54:21;;;;;;;2.78;1.08;;;9.70;99.90;;;;;;8142432;29;20082;-82
2024/04/10 07:58:22;;;;;;;2.85;1.20;;;10.20;99.90;;;;;;8144057;29;20051;-81
2024/04/10 08:02:23;;;;;;;1.77;1.40;;;10.30;99.90;;;;;;8159432;29;20071;-82
2024/04/10 08:06:23;;;;;;;4.82;1.50;;;10.50;99.90;;;;;;8139542;29;20058;-80
2024/04/10 08:10:24;;;;;;;5.00;1.40;;;11.20;99.90;;;;;;8158437;29;20115;-83
2024/04/10 08:14:24;;;;;;;1.38;1.10;;;11.30;99.90;;;;;;8143565;29;20028;-82
2024/04/10 08:18:29;;;;;;;1.70;0.90;;;11.90;99.90;;;;;;8164030;29;20748;-82
2024/04/10 08:22:30;;;;;;;2.25;1.15;;;12.60;99.90;;;;;;8155407;29;20040;-82
2024/04/10 08:26:33;;;;;;;2.63;1.52;;;12.60;99.90;;;;;;8157985;29;20083;-81
2024/04/10 08:30:34;;;;;;;3.03;1.10;;;12.40;99.90;;;;;;8163093;29;20550;-82
2024/04/10 08:34:34;;;;;;;2.03;1.17;;;12.70;99.90;;;;;;8164229;29;20046;-82
2024/04/10 08:38:35;;;;;;;1.85;1.10;;;13.10;99.90;;;;;;8150722;29;20036;-82
2024/04/10 08:42:41;;;;;;;1.70;0.90;;;13.30;99.90;;;;;;8161440;29;20087;-82
2024/04/10 08:46:43;;;;;;;3.97;0.95;;;13.80;99.90;;;;;;8167885;29;20055;-81
2024/04/10 08:50:45;;;;;;;1.05;0.75;;;14.00;99.90;;;;;;8158768;29;20048;-83
2024/04/10 08:54:46;;;;;;;1.13;0.40;;;13.40;99.90;;;;;;8162746;29;20055;-83
2024/04/10 08:58:47;;;;;;;4.70;1.17;;;12.70;99.90;;;;;;8148595;29;20520;-81
2024/04/10 09:02:47;;;;;;;2.70;1.15;;;12.10;99.90;;;;;;8161631;29;20036;-83
2024/04/10 09:06:51;;;;;;;3.47;0.70;;;11.50;99.90;;;;;;8165537;29;20040;-80
2024/04/10 09:10:54;;;;;;;2.88;0.65;;;11.20;99.90;;;;;;8164169;29;20424;-81
2024/04/10 09:15:11;;;;;;;2.63;0.68;;;11.30;99.90;;;;;;8158922;29;20032;-83
2024/04/10 09:19:18;;;;;;;8.73;1.15;;;11.70;99.90;;;;;;8147689;29;20050;-82
2024/04/10 09:23:19;;;;;;;2.38;0.52;;;12.00;99.90;;;;;;8168990;29;20036;-82
2024/04/10 09:27:19;;;;;;;5.95;0.70;;;12.10;99.90;;;;;;8153085;29;20512;-81
2024/04/10 09:31:20;;;;;;;0.77;0.50;;;12.00;99.90;;;;;;8164826;29;20071;-81
2024/04/10 09:35:23;;;;;;;1.67;0.70;;;11.70;99.90;;;;;;8151580;29;20505;-82
2024/04/10 09:39:27;;;;;;;2.15;0.70;;;11.50;99.90;;;;;;8165607;29;20040;-82
2024/04/10 09:43:29;;;;;;;4.53;0.85;;;11.50;99.90;;;;;;8147514;29;20063;-83
2024/04/10 09:47:32;;;;;;;1.70;0.93;;;11.40;99.90;;;;;;8148632;29;20032;-81
2024/04/10 09:51:34;;;;;;;1.20;0.63;;;11.80;99.90;;;;;;8141884;29;20062;-82
2024/04/10 09:55:38;;;;;;;1.88;0.90;;;12.40;99.90;;;;;;8148329;29;20064;-83
2024/04/10 09:59:40;;;;;;;4.03;0.85;;;13.10;99.90;;;;;;8159844;29;20099;-83
2024/04/10 10:03:41;;;;;;;4.90;0.77;;;13.60;99.90;;;;;;8166840;29;20035;-83
2024/04/10 10:07:41;;;;;;;3.83;0.90;;;14.10;99.90;;;;;;8164511;29;20035;-82
2024/04/10 10:11:42;;;;;;;2.92;0.80;;;14.10;99.90;;;;;;8142683;29;20043;-83
2024/04/10 10:15:43;;;;;;;4.15;0.77;;;14.00;99.90;;;;;;8149268;29;20046;-82
2024/04/10 10:19:43;;;;;;;4.43;0.80;;;13.60;99.90;;;;;;8152286;29;20079;-81
2024/04/10 10:24:05;;;;;;;2.72;0.70;;;13.00;99.90;;;;;;8162473;29;20099;-82
2024/04/10 10:28:10;;;;;;;1.80;0.70;;;14.20;99.90;;;;;;8148056;29;20409;-82
2024/04/10 10:32:10;;;;;;;2.63;0.73;;;14.50;99.90;;;;;;8152793;29;20130;-80
2024/04/10 10:36:11;;;;;;;0.93;0.60;;;13.80;99.90;;;;;;8165467;29;20036;-82
2024/04/10 10:40:16;;;;;;;3.00;0.65;;;14.50;99.90;;;;;;8149950;29;20039;-83
2024/04/10 10:44:21;;;;;;;2.25;0.68;;;16.90;99.90;;;;;;8161592;29;20035;-82
2024/04/10 10:48:21;;;;;;;1.52;0.80;;;17.10;99.90;;;;;;8157651;29;20098;-81
2024/04/10 10:52:22;;;;;;;5.55;0.82;;;16.80;99.90;;;;;;8159691;29;20473;-82
2024/04/10 10:56:27;;;;;;;2.03;0.60;;;16.10;99.90;;;;;;8166599;29;20181;-83
2024/04/10 11:00:31;;;;;;;3.55;0.73;;;14.40;99.90;;;;;;8163104;29;20036;-81
2024/04/10 11:04:31;;;;;;;2.05;0.68;;;13.80;99.90;;;;;;8164575;29;20122;-82
2024/04/10 11:08:32;;;;;;;0.47;0.47;;;13.60;99.90;;;;;;8147655;29;20520;-83
2024/04/10 11:12:32;;;;;;;2.90;0.82;;;12.90;99.90;;;;;;8146319;29;20055;-82
2024/04/10 11:16:33;;;;;;;2.38;1.00;;;12.60;99.90;;;;;;8167908;29;20059;-82
2024/04/10 11:20:34;;;;;;;2.60;0.73;;;12.10;99.90;;;;;;8144336;29;20032;-83
2024/04/10 11:24:35;;;;;;;1.70;0.85;;;11.90;99.90;;;;;;8162172;29;20097;-83
2024/04/10 11:28:35;;;;;;;1.23;0.63;;;11.20;99.90;;;;;;8145415;29;20043;-82
2024/04/10 11:32:36;;;;;;;3.17;0.63;;;11.00;99.90;;;;;;8164038;29;20110;-82
2024/04/10 11:36:36;;;;;;;1.92;0.60;;;10.70;99.90;;;;;;8142654;29;20088;-81
2024/04/10 11:40:37;;;;;;;4.57;0.90;;;10.50;99.90;;;;;;8168110;29;20095;-81
2024/04/10 11:44:38;;;;;;;1.40;0.80;;;10.50;99.90;;;;;;8170342;28;20039;-82
2024/04/10 11:48:38;;;;;;;4.30;1.42;;;10.60;99.90;;;;;;8147114;29;20067;-82
2024/04/10 11:52:40;;;;;;;4.32;1.08;;;10.70;99.90;;;;;;8147614;29;20042;-82
2024/04/10 11:56:40;;;;;;;0.93;0.60;;;10.80;99.90;;;;;;8164800;29;20072;-84
2024/04/10 12:00:41;;;;;;;3.47;0.80;;;11.10;99.90;;;;;;8147259;29;20063;-83
2024/04/10 12:04:42;;;;;;;3.10;0.85;;;11.30;99.90;;;;;;8161932;29;20035;-82
2024/04/10 12:08:43;;;;;;;1.33;0.82;;;11.50;99.90;;;;;;8164627;29;20043;-83
2024/04/10 12:12:48;;;;;;;3.95;1.30;;;11.80;99.90;;;;;;8148346;29;20035;-83
2024/04/10 12:16:49;;;;;;;0.90;0.70;;;12.20;99.90;;;;;;8163395;29;20069;-83
2024/04/10 12:20:50;;;;;;;3.00;0.85;;;12.80;99.90;;;;;;8156212;29;20104;-83
2024/04/10 12:24:51;;;;;;;4.40;1.00;;;13.20;99.90;;;;;;8159960;29;20055;-83
2024/04/10 12:28:51;;;;;;;2.00;1.00;;;13.80;99.90;;;;;;8149340;29;20549;-82
2024/04/10 12:32:52;;;;;;;3.95;1.15;;;14.30;99.90;;;;;;8162535;29;20043;-83
2024/04/10 12:41:12;;;;;;;1.63;0.77;;;15.10;99.90;;;;;;8172744;29;20070;-82
2024/04/10 12:45:12;;;;;;;2.72;1.00;;;12.90;99.90;;;;;;8155529;29;20031;-81
2024/04/10 12:49:13;;;;;;;3.17;1.10;;;11.60;99.90;;;;;;8164640;29;20176;-83
2024/04/10 12:53:13;;;;;;;3.58;0.88;;;11.30;99.90;;;;;;8148854;29;20039;-83
2024/04/10 12:57:14;;;;;;;2.15;0.80;;;11.10;99.90;;;;;;8168374;29;20031;-82
2024/04/10 13:01:15;;;;;;;4.97;1.00;;;11.10;99.90;;;;;;8156218;29;20042;-83
2024/04/10 13:05:15;;;;;;;4.35;1.33;;;11.30;99.90;;;;;;8164696;29;20644;-82
2024/04/10 13:09:16;;;;;;;4.55;0.90;;;11.30;99.90;;;;;;8150602;29;20036;-82
2024/04/10 13:13:17;;;;;;;2.38;1.00;;;11.40;99.90;;;;;;8168844;29;20043;-82
2024/04/10 13:17:17;;;;;;;2.45;1.10;;;11.60;99.90;;;;;;8159529;29;20031;-81
2024/04/10 13:21:18;;;;;;;3.53;0.88;;;12.10;99.90;;;;;;8161026;29;20064;-82
2024/04/10 13:25:18;;;;;;;2.35;0.73;;;12.40;99.90;;;;;;8154231;29;20039;-83
2024/04/10 13:29:19;;;;;;;3.65;1.00;;;12.50;99.90;;;;;;8159367;29;20043;-82
2024/04/10 13:33:20;;;;;;;1.45;0.95;;;12.40;99.90;;;;;;8150935;29;20417;-82
2024/04/10 13:37:20;;;;;;;2.28;0.98;;;12.50;99.90;;;;;;8150980;29;20066;-81
2024/04/10 13:41:23;;;;;;;2.38;0.82;;;13.00;99.90;;;;;;8169065;29;20044;-82
2024/04/10 13:45:23;;;;;;;2.63;1.20;;;13.80;99.90;;;;;;8150513;29;20043;-83
2024/04/10 13:49:24;;;;;;;5.63;1.50;;;17.10;99.90;;;;;;8165147;29;20038;-83
2024/04/10 13:53:24;;;;;;;4.32;1.10;;;19.20;98.20;;;;;;8151809;29;20378;-82
2024/04/10 13:57:25;;;;;;;4.10;1.23;;;18.80;98.30;;;;;;8167081;29;20437;-83
2024/04/10 14:01:25;;;;;;;3.75;1.10;;;20.40;96.60;;;;;;8166792;29;20048;-83
2024/04/10 14:05:26;;;;;;;2.35;1.10;;;20.40;93.30;;;;;;8168766;29;20024;-82
2024/04/10 14:09:27;;;;;;;4.22;1.10;;;19.90;93.80;;;;;;8157093;29;20091;-82
2024/04/10 14:13:28;;;;;;;1.95;0.82;;;19.10;94.60;;;;;;8160297;29;20036;-83
2024/04/10 14:17:30;;;;;;;2.08;0.90;;;17.10;95.50;;;;;;8162350;29;20412;-82
2024/04/10 14:21:31;;;;;;;2.67;0.93;;;15.30;98.40;;;;;;8152704;29;20568;-82
2024/04/10 14:25:39;;;;;;;1.08;0.73;;;13.50;99.90;;;;;;8141380;29;20035;-83
2024/04/10 14:29:39;;;;;;;2.67;1.17;;;12.50;99.90;;;;;;8164258;29;20027;-82
2024/04/10 14:33:42;;;;;;;1.67;1.08;;;12.40;99.90;;;;;;8157125;29;20039;-83
2024/04/10 14:37:42;;;;;;;1.50;1.13;;;12.60;99.90;;;;;;8160882;29;20114;-82
2024/04/10 14:41:43;;;;;;;2.20;0.95;;;12.60;99.90;;;;;;8156850;29;20099;-82
2024/04/10 14:45:44;;;;;;;3.67;0.93;;;12.90;99.90;;;;;;8151434;29;20046;-82
2024/04/10 14:49:46;;;;;;;2.58;1.20;;;13.00;99.90;;;;;;8166296;29;20524;-81
2024/04/10 14:53:46;;;;;;;4.82;1.40;;;13.00;99.90;;;;;;8167496;29;20051;-82
2024/04/10 14:57:47;;;;;;;2.25;0.98;;;13.50;99.90;;;;;;8162354;29;20409;-82
2024/04/10 15:01:48;;;;;;;3.45;1.27;;;13.10;99.90;;;;;;8158601;29;20107;-83
2024/04/10 15:05:48;;;;;;;3.65;1.05;;;13.50;99.90;;;;;;8148859;29;20150;-82
2024/04/10 15:09:49;;;;;;;3.05;1.00;;;13.50;99.90;;;;;;8147284;29;20054;-80
2024/04/10 15:13:49;;;;;;;2.72;0.90;;;13.40;99.90;;;;;;8143646;29;20035;-82
2024/04/10 15:17:50;;;;;;;2.08;1.00;;;13.40;99.90;;;;;;8140862;29;20096;-83
2024/04/10 15:21:50;;;;;;;3.45;1.02;;;13.20;99.90;;;;;;8170493;28;20535;-82
2024/04/10 15:25:57;;;;;;;4.25;1.20;;;13.00;99.90;;;;;;8148085;29;20040;-82
2024/04/10 15:29:58;;;;;;;3.17;1.10;;;12.80;99.90;;;;;;8146608;29;20568;-82
2024/04/10 15:33:59;;;;;;;4.13;1.00;;;12.70;99.90;;;;;;8165585;29;20079;-83
2024/04/10 15:37:59;;;;;;;1.17;1.00;;;12.90;99.90;;;;;;8170973;29;20457;-83
2024/04/10 15:42:00;;;;;;;1.15;0.80;;;12.60;99.90;;;;;;8145436;29;20048;-83
2024/04/10 15:46:02;;;;;;;1.67;0.82;;;12.70;99.90;;;;;;8146622;29;20063;-83
2024/04/10 15:50:05;;;;;;;2.03;0.77;;;12.50;99.90;;;;;;8138836;29;20044;-82
2024/04/10 15:54:06;;;;;;;2.17;0.75;;;12.10;99.90;;;;;;8138962;29;20035;-82
2024/04/10 15:58:08;;;;;;;2.95;0.77;;;11.80;99.90;;;;;;8151640;29;20035;-83
2024/04/10 16:02:09;;;;;;;0.77;0.50;;;11.70;99.90;;;;;;8146610;29;20103;-82
2024/04/10 16:06:14;;;;;;;6.97;0.95;;;11.80;99.90;;;;;;8163194;29;20509;-82
2024/04/10 16:10:15;;;;;;;2.65;0.73;;;11.80;99.90;;;;;;8147147;29;20576;-81
2024/04/10 16:14:15;;;;;;;0.80;0.50;;;11.90;99.90;;;;;;8160178;29;20055;-84
2024/04/10 16:18:17;;;;;;;3.60;0.93;;;12.10;99.90;;;;;;8158698;29;20035;-85
2024/04/10 16:22:17;;;;;;;1.95;0.82;;;12.30;99.90;;;;;;8156859;29;20453;-85
2024/04/10 16:26:23;;;;;;;1.45;0.70;;;12.50;99.90;;;;;;8149231;29;20036;-85
2024/04/10 16:30:24;;;;;;;2.05;0.80;;;12.30;99.90;;;;;;8160381;29;20040;-84
2024/04/10 16:34:24;;;;;;;4.95;3.08;;;12.10;99.90;;;;;;8168701;29;20055;-84
2024/04/10 16:38:25;;;;;;;3.25;1.55;;;11.90;99.90;;;;;;8162154;29;20044;-84
2024/04/10 16:42:25;;;;;;;1.45;0.73;;;11.80;99.90;;;;;;8164525;29;20050;-84
2024/04/10 16:46:26;;;;;;;2.03;0.93;;;11.80;99.90;;;;;;8147753;29;20519;-83
2024/04/10 16:50:27;;;;;;;1.75;0.73;;;12.00;99.90;;;;;;8157113;29;20028;-85
2024/04/10 16:54:28;;;;;;;0.90;0.57;;;12.00;99.90;;;;;;8167417;29;20031;-84
2024/04/10 16:58:28;;;;;;;2.75;1.50;;;12.10;99.90;;;;;;8141045;29;20116;-86
2024/04/10 17:02:29;;;;;;;2.30;0.70;;;11.90;99.90;;;;;;8150599;29;20040;-85
2024/04/10 17:06:30;;;;;;;5.53;2.00;;;11.70;99.90;;;;;;8158993;29;20032;-85
2024/04/10 17:10:35;;;;;;;4.18;1.33;;;11.50;99.90;;;;;;8143339;29;20028;-86
2024/04/10 17:14:36;;;;;;;3.30;1.23;;;11.50;99.90;;;;;;8137898;29;20032;-86
2024/04/10 17:22:59;;;;;;;3.97;1.50;;;10.90;99.90;;;;;;8166344;29;20055;-86
2024/04/10 17:27:00;;;;;;;2.25;1.25;;;10.70;99.90;;;;;;8152271;29;20040;-86
2024/04/10 17:31:03;;;;;;;3.55;0.68;;;10.60;99.90;;;;;;8150579;29;20095;-85
2024/04/10 17:35:04;;;;;;;2.92;1.20;;;11.10;99.90;;;;;;8170994;29;20048;-85
2024/04/10 17:39:05;;;;;;;5.72;1.15;;;11.20;99.90;;;;;;8148692;29;20048;-85
2024/04/10 17:43:05;;;;;;;7.22;2.72;;;10.60;99.90;;;;;;8144824;29;20056;-86
2024/04/10 17:47:06;;;;;;;8.43;2.72;;;10.30;99.90;;;;;;8151138;29;20036;-86
2024/04/10 17:51:14;;;;;;;8.23;3.08;;;10.00;99.90;;;;;;8151545;29;20512;-86
2024/04/10 17:55:15;;;;;;;7.90;3.78;;;9.60;99.90;;;;;;8154866;29;20528;-87
2024/04/10 17:59:15;;;;;;;7.82;3.28;;;9.20;99.90;;;;;;8167532;29;20043;-86
2024/04/10 18:03:18;;;;;;;6.28;2.50;;;9.00;99.90;;;;;;8150378;29;20063;-87
2024/04/10 18:07:19;;;;;;;8.10;3.33;;;8.90;99.90;;;;;;8170961;29;20036;-86
2024/04/10 18:11:19;;;;;;;3.72;1.77;;;8.50;99.90;;;;;;8153632;29;20168;-86
2024/04/10 18:15:20;;;;;;;3.13;1.02;;;8.30;99.90;;;;;;8154736;29;20446;-87
2024/04/10 18:19:21;;;;;;;1.60;1.00;;;7.90;99.90;;;;;;8150161;29;20126;-84
2024/04/10 18:23:21;;;;;;;4.35;1.40;;;7.60;99.90;;;;;;8163672;29;20036;-84
2024/04/10 18:27:23;;;;;;;2.72;1.40;;;7.30;99.90;;;;;;8166366;29;20042;-81
2024/04/10 18:31:24;;;;;;;4.30;1.50;;;7.10;99.90;;;;;;8180554;29;20642;-82
2024/04/10 18:35:24;;;;;;;2.35;1.10;;;6.90;99.90;;;;;;8147106;29;20048;-82
2024/04/10 18:39:25;;;;;;;3.55;0.88;;;6.80;99.90;;;;;;8165145;29;20127;-84
2024/04/10 18:43:25;;;;;;;1.95;0.77;;;6.60;99.90;;;;;;8146269;29;20062;-83
2024/04/10 18:47:29;;;;;;;2.83;0.75;;;6.50;99.90;;;;;;8164784;29;20036;-84
2024/04/10 18:51:30;;;;;;;3.22;0.85;;;6.30;99.90;;;;;;8144317;29;20050;-84
2024/04/10 18:55:30;;;;;;;3.20;0.80;;;6.10;99.90;;;;;;8144781;29;20078;-87
2024/04/10 18:59:34;;;;;;;3.08;1.15;;;6.00;99.90;;;;;;8152161;29;20047;-85
2024/04/10 19:03:43;;;;;;;1.52;1.10;;;6.00;99.90;;;;;;8165387;29;20039;-85
2024/04/10 19:07:47;;;;;;;1.43;1.13;;;5.90;99.90;;;;;;8156777;29;20035;-86
2024/04/10 19:11:48;;;;;;;1.60;0.90;;;5.70;99.90;;;;;;8170376;29;20507;-86
2024/04/10 19:15:49;;;;;;;1.95;0.98;;;5.60;99.90;;;;;;8157542;29;20061;-85
2024/04/10 19:19:51;;;;;;;5.45;3.08;;;5.40;99.90;;;;;;8166766;29;20036;-85
2024/04/10 19:23:51;;;;;;;4.90;2.83;;;5.30;99.90;;;;;;8168813;29;20059;-86
2024/04/10 19:27:54;;;;;;;3.35;2.25;;;5.20;99.90;;;;;;8155897;29;20127;-85
2024/04/10 19:31:55;;;;;;;5.63;2.33;;;5.10;99.90;;;;;;8148073;29;20887;-86
2024/04/10 19:36:10;;;;;;;5.07;2.17;;;5.00;99.90;;;;;;8151023;29;20123;-86
2024/04/10 19:40:15;;;;;;;5.47;3.05;;;4.90;99.90;;;;;;8155160;29;20050;-86
2024/04/10 19:44:16;;;;;;;7.60;3.45;;;5.00;99.90;;;;;;8152091;29;20115;-86
2024/04/10 19:48:16;;;;;;;5.75;3.20;;;4.90;99.90;;;;;;8146359;29;20393;-88
2024/04/10 19:52:17;;;;;;;5.45;2.83;;;4.80;99.90;;;;;;8151761;29;20035;-89
2024/04/10 19:56:17;;;;;;;3.95;2.33;;;4.40;99.90;;;;;;8152194;29;20489;-87
2024/04/10 20:00:18;;;;;;;2.85;1.73;;;4.60;99.90;;;;;;8152722;29;20055;-85
2024/04/10 20:04:19;;;;;;;3.53;1.85;;;4.50;99.90;;;;;;8147211;29;20028;-85
2024/04/10 20:08:19;;;;;;;3.25;2.03;;;4.50;99.90;;;;;;8146983;29;20035;-85
2024/04/10 20:12:20;;;;;;;3.08;2.00;;;4.50;99.90;;;;;;8151147;29;20134;-85
2024/04/10 20:16:22;;;;;;;5.82;2.13;;;4.50;99.90;;;;;;8167139;29;20043;-86
2024/04/10 20:20:23;;;;;;;1.65;0.88;;;4.90;99.90;;;;;;8145785;29;20115;-85
2024/04/10 20:24:23;;;;;;;2.13;1.13;;;4.60;99.90;;;;;;8147953;29;20068;-85
2024/04/10 20:28:24;;;;;;;5.13;1.08;;;4.40;99.90;;;;;;8153737;29;20039;-85
2024/04/10 20:32:25;;;;;;;3.05;1.08;;;4.20;99.90;;;;;;8153111;29;20040;-85
2024/04/10 20:36:25;;;;;;;4.22;1.17;;;4.00;99.90;;;;;;8167215;29;20039;-86
2024/04/10 20:40:27;;;;;;;2.05;1.33;;;3.90;99.90;;;;;;8146248;28;21042;-86
2024/04/10 20:44:27;;;;;;;3.75;1.38;;;3.70;99.90;;;;;;8151468;29;20039;-86
2024/04/10 20:48:30;;;;;;;2.53;1.52;;;3.60;99.90;;;;;;8170214;29;20028;-85
2024/04/10 20:52:35;;;;;;;3.53;1.70;;;3.50;99.90;;;;;;8170476;29;20043;-85
2024/04/10 20:56:35;;;;;;;3.58;1.85;;;3.40;99.90;;;;;;8153385;29;20035;-86
2024/04/10 21:00:36;;;;;;;5.43;2.40;;;3.60;99.90;;;;;;8171903;29;20122;-85
2024/04/10 21:04:36;;;;;;;3.67;2.15;;;3.40;99.90;;;;;;8155412;29;20036;-85
2024/04/10 22:12:06;;;;;;;1.92;1.33;;;2.30;99.90;;;;;;8934490;26;20010;-85
2024/04/10 22:16:06;;;;;;;2.63;1.23;;;2.30;99.90;;;;;;8932874;26;20004;-85
2024/04/10 22:24:27;;;;;;;3.58;1.92;;;2.30;99.90;;;;;;8937733;26;20011;-85
2024/04/10 22:28:28;;;;;;;2.80;1.35;;;2.30;99.90;;;;;;8925262;26;20651;-87
2024/04/10 22:32:28;;;;;;;1.35;1.02;;;2.30;99.90;;;;;;8934322;26;20035;-85
2024/04/10 22:36:29;;;;;;;1.33;1.15;;;2.30;99.90;;;;;;8899386;26;20012;-85
2024/04/10 22:40:36;;;;;;;1.75;1.27;;;2.20;99.90;;;;;;8906520;26;20015;-85
2024/04/10 22:44:37;;;;;;;2.72;1.08;;;2.00;99.90;;;;;;8903003;26;20021;-86
2024/04/10 22:48:38;;;;;;;2.17;1.10;;;1.90;99.90;;;;;;8914319;26;20008;-85
2024/04/10 22:52:38;;;;;;;2.00;1.23;;;1.90;99.90;;;;;;8898579;26;20437;-85
2024/04/10 22:56:39;;;;;;;2.22;1.17;;;1.80;99.90;;;;;;8909012;26;20018;-86
2024/04/10 23:00:40;;;;;;;4.03;1.45;;;1.80;99.90;;;;;;8903487;26;19997;-86
2024/04/10 23:04:40;;;;;;;5.00;1.45;;;1.70;99.90;;;;;;8890043;26;20194;-85
2024/04/10 23:08:41;;;;;;;1.23;1.00;;;1.70;99.90;;;;;;8905851;26;20008;-86
2024/04/10 23:12:41;;;;;;;1.02;0.85;;;1.50;99.90;;;;;;8909911;26;20004;-85
2024/04/10 23:16:44;;;;;;;1.92;1.05;;;1.50;99.90;;;;;;8904819;26;20019;-85
2024/04/10 23:20:45;;;;;;;1.42;1.10;;;1.30;99.90;;;;;;8905150;26;19996;-85
2024/04/10 23:24:45;;;;;;;2.15;1.20;;;1.40;99.90;;;;;;8907565;26;20000;-86
2024/04/10 23:28:46;;;;;;;2.15;1.33;;;1.40;99.90;;;;;;8907418;26;20070;-85
2024/04/10 23:32:47;;;;;;;1.38;0.95;;;1.40;99.90;;;;;;8905244;26;20032;-85
2024/04/10 23:36:47;;;;;;;2.00;0.93;;;1.30;99.90;;;;;;8896761;26;20077;-85
2024/04/10 23:40:48;;;;;;;1.77;1.30;;;1.30;99.90;;;;;;8900852;26;19995;-85
2024/04/10 23:44:48;;;;;;;2.65;1.50;;;1.30;99.90;;;;;;8903980;26;20028;-85
2024/04/10 23:48:49;;;;;;;1.83;1.15;;;1.40;99.90;;;;;;8902869;26;20004;-85
2024/04/10 23:52:49;;;;;;;2.83;1.50;;;1.30;99.90;;;;;;8902754;26;20004;-85
2024/04/10 23:56:50;;;;;;;1.70;1.15;;;1.20;99.90;;;;;;8903852;26;20090;-85
